createdAt,value
2022-07-25T00:00:04.761Z,23.10
2022-07-25T00:01:09.279Z,23.10
2022-07-25T00:02:14.045Z,23.10
2022-07-25T00:03:19.033Z,23.10
2022-07-25T00:04:22.758Z,23.10
2022-07-25T00:05:27.051Z,23.20
2022-07-25T00:06:30.482Z,23.10
2022-07-25T00:07:32.844Z,23.10
2022-07-25T00:08:36.130Z,23.10
2022-07-25T00:09:38.651Z,23.20
2022-07-25T00:10:42.369Z,23.10
2022-07-25T00:11:44.789Z,23.10
2022-07-25T00:12:48.519Z,24.90
2022-07-25T00:13:50.777Z,23.10
2022-07-25T00:14:54.351Z,23.10
2022-07-25T00:15:57.084Z,22.90
2022-07-25T00:17:00.721Z,22.70
2022-07-25T00:18:03.570Z,23.00
2022-07-25T00:19:07.033Z,23.10
2022-07-25T00:20:10.731Z,23.00
2022-07-25T00:21:15.439Z,23.00
2022-07-25T00:22:18.197Z,23.10
2022-07-25T00:23:21.627Z,23.10
2022-07-25T00:24:23.961Z,23.00
2022-07-25T00:25:27.650Z,23.00
2022-07-25T00:26:29.957Z,23.00
2022-07-25T00:27:33.413Z,23.00
2022-07-25T00:28:35.895Z,23.00
2022-07-25T00:29:39.302Z,23.00
2022-07-25T00:30:41.867Z,22.90
2022-07-25T00:31:45.362Z,22.90
2022-07-25T00:32:47.954Z,22.90
2022-07-25T00:33:51.425Z,22.40
2022-07-25T00:34:54.162Z,22.90
2022-07-25T00:35:59.363Z,22.90
2022-07-25T00:37:03.176Z,22.90
2022-07-25T00:38:06.797Z,22.90
2022-07-25T00:39:09.247Z,22.90
2022-07-25T00:40:13.927Z,22.90
2022-07-25T00:41:16.855Z,22.90
2022-07-25T00:42:20.220Z,23.90
2022-07-25T00:43:22.782Z,22.80
2022-07-25T00:44:27.548Z,22.70
2022-07-25T00:45:31.324Z,22.60
2022-07-25T00:46:33.939Z,22.60
2022-07-25T00:47:37.657Z,22.60
2022-07-25T00:48:40.743Z,22.50
2022-07-25T00:49:44.278Z,22.50
2022-07-25T00:50:47.749Z,22.50
2022-07-25T00:51:51.244Z,22.50
2022-07-25T00:52:57.424Z,22.50
2022-07-25T00:54:02.004Z,22.50
2022-07-25T00:55:06.777Z,21.40
2022-07-25T00:56:11.102Z,22.60
2022-07-25T00:57:13.797Z,21.40
2022-07-25T00:58:19.068Z,22.60
2022-07-25T00:59:21.870Z,22.60
2022-07-25T01:00:25.413Z,22.60
2022-07-25T01:01:30.323Z,22.60
2022-07-25T01:02:33.787Z,22.60
2022-07-25T01:03:36.223Z,22.60
2022-07-25T01:04:39.582Z,22.60
2022-07-25T01:05:42.096Z,22.60
2022-07-25T01:06:45.978Z,22.60
2022-07-25T01:07:48.756Z,22.70
2022-07-25T01:08:53.768Z,22.60
2022-07-25T01:09:56.934Z,22.70
2022-07-25T01:11:00.394Z,22.70
2022-07-25T01:12:03.255Z,22.70
2022-07-25T01:13:07.431Z,22.70
2022-07-25T01:14:10.007Z,22.70
2022-07-25T01:15:13.633Z,22.70
2022-07-25T01:16:17.189Z,22.70
2022-07-25T01:17:20.195Z,22.70
2022-07-25T01:18:23.472Z,22.70
2022-07-25T01:19:25.744Z,22.70
2022-07-25T01:20:33.113Z,22.70
2022-07-25T01:21:39.309Z,22.70
2022-07-25T01:22:42.862Z,22.70
2022-07-25T01:23:45.289Z,22.60
2022-07-25T01:24:48.552Z,22.60
2022-07-25T01:25:51.122Z,22.60
2022-07-25T01:26:54.539Z,22.60
2022-07-25T01:27:57.948Z,22.60
2022-07-25T01:29:01.232Z,22.60
2022-07-25T01:30:05.269Z,22.60
2022-07-25T01:31:08.701Z,22.60
2022-07-25T01:32:12.927Z,22.60
2022-07-25T01:33:17.851Z,22.60
2022-07-25T01:34:20.136Z,22.60
2022-07-25T01:35:23.519Z,22.60
2022-07-25T01:36:27.482Z,22.60
2022-07-25T01:37:30.754Z,22.60
2022-07-25T01:38:33.293Z,22.60
2022-07-25T01:39:36.581Z,22.50
2022-07-25T01:40:39.411Z,22.50
2022-07-25T01:41:43.038Z,22.60
2022-07-25T01:42:46.421Z,22.50
2022-07-25T01:43:48.983Z,22.60
2022-07-25T01:44:52.276Z,22.50
2022-07-25T01:45:54.867Z,22.50
2022-07-25T01:46:58.363Z,22.50
2022-07-25T01:48:00.814Z,22.50
2022-07-25T01:49:05.689Z,22.50
2022-07-25T01:50:09.717Z,22.40
2022-07-25T01:51:13.720Z,22.40
2022-07-25T01:52:17.759Z,22.40
2022-07-25T01:53:21.188Z,22.30
2022-07-25T01:54:23.511Z,22.30
2022-07-25T01:55:27.936Z,22.20
2022-07-25T01:56:32.232Z,22.20
2022-07-25T01:57:36.142Z,22.20
2022-07-25T01:58:39.063Z,22.20
2022-07-25T01:59:42.713Z,22.20
2022-07-25T02:00:45.018Z,22.20
2022-07-25T02:01:48.420Z,22.20
2022-07-25T02:03:11.605Z,22.20
2022-07-25T02:04:15.241Z,22.20
2022-07-25T02:05:17.603Z,21.50
2022-07-25T02:06:21.019Z,22.10
2022-07-25T02:07:24.740Z,22.20
2022-07-25T02:08:28.190Z,22.10
2022-07-25T02:09:30.846Z,22.10
2022-07-25T02:10:34.275Z,22.10
2022-07-25T02:11:37.757Z,22.10
2022-07-25T02:12:41.101Z,22.10
2022-07-25T02:13:44.694Z,22.10
2022-07-25T02:14:48.198Z,22.10
2022-07-25T02:15:50.596Z,22.10
2022-07-25T02:16:54.030Z,22.10
2022-07-25T02:17:56.403Z,22.10
2022-07-25T02:19:00.095Z,22.10
2022-07-25T02:20:02.495Z,22.10
2022-07-25T02:21:07.268Z,22.10
2022-07-25T02:22:18.030Z,22.10
2022-07-25T02:23:21.727Z,22.20
2022-07-25T02:24:25.332Z,22.10
2022-07-25T02:25:27.607Z,22.10
2022-07-25T02:26:30.955Z,22.00
2022-07-25T02:27:33.324Z,22.10
2022-07-25T02:28:36.652Z,22.00
2022-07-25T02:29:39.367Z,22.00
2022-07-25T02:33:54.970Z,22.00
2022-07-25T02:34:59.295Z,21.90
2022-07-25T02:36:02.029Z,21.70
2022-07-25T02:37:08.183Z,21.70
2022-07-25T02:38:10.606Z,21.70
2022-07-25T02:39:15.827Z,21.60
2022-07-25T02:40:18.435Z,21.60
2022-07-25T02:41:21.780Z,21.60
2022-07-25T02:42:24.213Z,21.70
2022-07-25T02:43:27.598Z,21.70
2022-07-25T02:44:30.157Z,21.70
2022-07-25T02:45:33.654Z,21.70
2022-07-25T02:46:37.529Z,21.70
2022-07-25T02:47:41.107Z,21.70
2022-07-25T02:48:43.815Z,21.70
2022-07-25T02:49:47.442Z,21.70
2022-07-25T02:50:50.942Z,21.70
2022-07-25T02:51:53.271Z,21.70
2022-07-25T02:52:56.606Z,21.70
2022-07-25T02:53:59.271Z,21.70
2022-07-25T02:55:09.260Z,21.70
2022-07-25T02:56:12.332Z,21.70
2022-07-25T02:57:17.445Z,21.60
2022-07-25T02:58:19.903Z,21.70
2022-07-25T02:59:23.343Z,21.60
2022-07-25T03:00:26.053Z,21.70
2022-07-25T03:01:29.921Z,21.70
2022-07-25T03:02:32.582Z,21.70
2022-07-25T03:03:36.057Z,21.70
2022-07-25T03:04:38.767Z,21.70
2022-07-25T03:05:42.446Z,21.70
2022-07-25T03:06:44.826Z,21.70
2022-07-25T03:07:48.228Z,21.70
2022-07-25T03:08:50.773Z,21.70
2022-07-25T03:09:55.169Z,21.80
2022-07-25T03:10:59.331Z,21.80
2022-07-25T03:12:02.904Z,21.80
2022-07-25T03:13:05.325Z,21.90
2022-07-25T03:14:10.000Z,21.80
2022-07-25T03:15:14.154Z,22.00
2022-07-25T03:16:17.860Z,22.10
2022-07-25T03:17:20.340Z,22.20
2022-07-25T03:18:23.661Z,22.30
2022-07-25T03:19:26.075Z,22.50
2022-07-25T03:20:29.530Z,22.60
2022-07-25T03:21:32.080Z,22.70
2022-07-25T03:22:38.353Z,22.90
2022-07-25T03:23:41.022Z,23.00
2022-07-25T03:24:44.858Z,23.10
2022-07-25T03:25:47.541Z,23.20
2022-07-25T03:26:52.446Z,23.40
2022-07-25T03:27:54.884Z,23.50
2022-07-25T03:28:58.374Z,23.60
2022-07-25T03:30:01.158Z,23.80
2022-07-25T03:31:06.564Z,24.00
2022-07-25T03:32:09.874Z,24.20
2022-07-25T03:33:13.459Z,24.40
2022-07-25T03:34:15.825Z,24.70
2022-07-25T03:35:19.429Z,24.80
2022-07-25T03:36:22.963Z,25.00
2022-07-25T03:37:25.583Z,25.10
2022-07-25T03:38:29.748Z,25.20
2022-07-25T03:39:33.122Z,25.30
2022-07-25T03:40:36.666Z,25.30
2022-07-25T03:41:39.188Z,25.30
2022-07-25T03:42:44.202Z,25.30
2022-07-25T03:43:46.542Z,25.40
2022-07-25T03:44:49.810Z,25.30
2022-07-25T03:45:52.337Z,25.30
2022-07-25T03:46:55.936Z,25.30
2022-07-25T03:47:58.600Z,25.30
2022-07-25T03:49:02.369Z,25.20
2022-07-25T03:50:05.613Z,25.30
2022-07-25T03:51:08.987Z,25.20
2022-07-25T03:52:11.424Z,25.10
2022-07-25T03:53:14.903Z,25.10
2022-07-25T03:54:17.395Z,25.00
2022-07-25T03:55:24.032Z,24.90
2022-07-25T03:56:29.144Z,24.80
2022-07-25T03:57:32.448Z,24.80
2022-07-25T03:58:36.490Z,24.70
2022-07-25T03:59:40.458Z,24.70
2022-07-25T04:00:42.940Z,24.50
2022-07-25T04:01:49.680Z,24.60
2022-07-25T04:02:53.254Z,24.50
2022-07-25T04:03:55.735Z,24.50
2022-07-25T04:04:59.126Z,24.50
2022-07-25T04:06:02.912Z,24.60
2022-07-25T04:07:08.157Z,24.70
2022-07-25T04:08:10.886Z,24.60
2022-07-25T04:09:16.052Z,24.70
2022-07-25T04:10:18.935Z,24.70
2022-07-25T04:11:22.585Z,24.70
2022-07-25T04:12:25.113Z,24.70
2022-07-25T04:13:28.703Z,25.10
2022-07-25T04:14:34.273Z,24.90
2022-07-25T04:15:37.926Z,24.90
2022-07-25T04:16:40.660Z,24.90
2022-07-25T04:17:44.088Z,24.90
2022-07-25T04:18:48.037Z,24.90
2022-07-25T04:19:53.035Z,25.00
2022-07-25T04:20:55.451Z,25.00
2022-07-25T04:21:58.817Z,25.10
2022-07-25T04:23:01.208Z,25.00
2022-07-25T04:24:05.526Z,25.10
2022-07-25T04:25:09.133Z,25.10
2022-07-25T04:26:12.594Z,25.10
2022-07-25T04:27:16.037Z,25.20
2022-07-25T04:28:18.533Z,25.30
2022-07-25T04:29:22.115Z,25.30
2022-07-25T04:30:26.047Z,25.30
2022-07-25T04:31:29.712Z,25.40
2022-07-25T04:32:32.090Z,25.50
2022-07-25T04:33:38.633Z,25.60
2022-07-25T04:34:41.253Z,25.60
2022-07-25T04:35:45.116Z,25.70
2022-07-25T04:36:48.602Z,25.80
2022-07-25T04:37:50.985Z,25.80
2022-07-25T04:38:54.574Z,25.90
2022-07-25T04:39:57.033Z,25.90
2022-07-25T04:41:00.926Z,26.00
2022-07-25T04:42:03.486Z,26.00
2022-07-25T04:43:06.877Z,26.10
2022-07-25T04:44:09.698Z,26.10
2022-07-25T04:45:14.187Z,26.20
2022-07-25T04:46:23.998Z,26.20
2022-07-25T04:47:26.332Z,26.30
2022-07-25T04:48:30.032Z,26.30
2022-07-25T04:49:32.607Z,26.40
2022-07-25T04:50:36.125Z,26.40
2022-07-25T04:51:38.483Z,26.40
2022-07-25T04:52:42.075Z,26.50
2022-07-25T04:53:44.855Z,26.50
2022-07-25T04:54:48.213Z,26.50
2022-07-25T04:55:50.809Z,26.50
2022-07-25T04:56:54.293Z,27.00
2022-07-25T04:57:56.605Z,26.50
2022-07-25T04:59:04.925Z,26.40
2022-07-25T05:00:11.603Z,26.40
2022-07-25T05:01:15.476Z,26.30
2022-07-25T05:02:20.136Z,26.40
2022-07-25T05:03:23.607Z,25.90
2022-07-25T05:04:25.962Z,26.50
2022-07-25T05:05:29.722Z,26.60
2022-07-25T05:06:33.263Z,26.40
2022-07-25T05:07:35.876Z,26.30
2022-07-25T05:08:39.388Z,26.40
2022-07-25T05:09:41.887Z,26.50
2022-07-25T05:10:45.446Z,26.60
2022-07-25T05:11:52.831Z,26.70
2022-07-25T05:12:59.548Z,26.70
2022-07-25T05:14:01.924Z,26.80
2022-07-25T05:15:05.957Z,26.80
2022-07-25T05:16:10.085Z,26.80
2022-07-25T05:17:12.766Z,26.80
2022-07-25T05:18:17.513Z,26.80
2022-07-25T05:19:20.838Z,26.70
2022-07-25T05:20:23.467Z,26.90
2022-07-25T05:21:27.765Z,26.90
2022-07-25T05:22:30.281Z,26.90
2022-07-25T05:23:33.835Z,27.00
2022-07-25T05:24:37.794Z,27.00
2022-07-25T05:25:41.322Z,27.00
2022-07-25T05:26:43.803Z,27.00
2022-07-25T05:27:47.427Z,27.10
2022-07-25T05:28:49.768Z,27.20
2022-07-25T05:29:53.107Z,27.20
2022-07-25T05:30:56.573Z,27.30
2022-07-25T05:31:59.163Z,27.30
2022-07-25T05:33:02.682Z,27.40
2022-07-25T05:34:07.011Z,27.50
2022-07-25T05:35:12.200Z,27.60
2022-07-25T05:36:14.714Z,27.60
2022-07-25T05:37:18.891Z,27.60
2022-07-25T05:38:22.227Z,27.50
2022-07-25T05:39:26.226Z,27.50
2022-07-25T05:40:29.597Z,27.50
2022-07-25T05:41:32.471Z,27.60
2022-07-25T05:42:36.608Z,27.60
2022-07-25T05:43:42.828Z,27.50
2022-07-25T05:44:45.282Z,27.40
2022-07-25T05:45:51.019Z,27.20
2022-07-25T05:46:53.770Z,27.10
2022-07-25T05:47:59.775Z,27.00
2022-07-25T05:49:03.120Z,27.00
2022-07-25T05:50:09.295Z,27.00
2022-07-25T05:51:12.673Z,26.80
2022-07-25T05:52:15.943Z,26.80
2022-07-25T05:53:18.651Z,26.80
2022-07-25T05:54:22.090Z,26.80
2022-07-25T05:55:25.588Z,26.80
2022-07-25T05:56:28.070Z,26.80
2022-07-25T05:57:31.557Z,26.80
2022-07-25T05:58:36.943Z,26.80
2022-07-25T05:59:39.451Z,26.90
2022-07-25T06:00:45.291Z,26.70
2022-07-25T06:01:48.440Z,26.80
2022-07-25T06:02:52.422Z,26.80
2022-07-25T06:03:55.039Z,26.70
2022-07-25T06:04:59.841Z,26.20
2022-07-25T06:06:04.866Z,26.70
2022-07-25T06:07:09.884Z,26.80
2022-07-25T06:08:15.872Z,26.70
2022-07-25T06:09:20.063Z,26.70
2022-07-25T06:10:23.472Z,26.70
2022-07-25T06:11:31.059Z,27.80
2022-07-25T06:12:36.668Z,26.80
2022-07-25T06:13:40.538Z,26.80
2022-07-25T06:14:43.006Z,26.90
2022-07-25T06:15:46.599Z,26.90
2022-07-25T06:16:50.314Z,26.90
2022-07-25T06:17:53.836Z,26.90
2022-07-25T06:18:56.279Z,26.30
2022-07-25T06:19:59.698Z,26.90
2022-07-25T06:21:03.839Z,26.90
2022-07-25T06:22:08.242Z,27.00
2022-07-25T06:23:13.251Z,27.00
2022-07-25T06:24:16.642Z,27.00
2022-07-25T06:25:22.354Z,26.80
2022-07-25T06:26:25.878Z,27.10
2022-07-25T06:27:29.606Z,27.20
2022-07-25T06:28:33.076Z,27.30
2022-07-25T06:29:35.616Z,27.30
2022-07-25T06:30:41.405Z,27.40
2022-07-25T06:31:46.386Z,27.40
2022-07-25T06:32:51.426Z,27.40
2022-07-25T06:33:55.135Z,27.30
2022-07-25T06:34:58.104Z,27.30
2022-07-25T06:36:09.884Z,27.30
2022-07-25T06:37:12.689Z,27.30
2022-07-25T06:38:16.236Z,27.30
2022-07-25T06:39:22.399Z,27.40
2022-07-25T06:40:25.243Z,27.50
2022-07-25T06:41:28.969Z,27.50
2022-07-25T06:42:33.481Z,27.50
2022-07-25T06:43:37.334Z,27.50
2022-07-25T06:44:40.807Z,27.50
2022-07-25T06:45:47.739Z,27.40
2022-07-25T06:46:51.580Z,26.80
2022-07-25T06:47:54.369Z,27.40
2022-07-25T06:48:58.270Z,27.40
2022-07-25T06:50:01.939Z,27.30
2022-07-25T06:51:06.751Z,27.50
2022-07-25T06:52:11.141Z,27.50
2022-07-25T06:53:13.907Z,27.50
2022-07-25T06:54:19.392Z,27.60
2022-07-25T06:55:22.308Z,27.60
2022-07-25T06:56:31.699Z,27.60
2022-07-25T06:57:34.307Z,27.70
2022-07-25T06:58:37.874Z,27.70
2022-07-25T06:59:40.962Z,27.70
2022-07-25T07:00:44.432Z,27.80
2022-07-25T07:01:51.283Z,27.80
2022-07-25T07:02:58.579Z,27.80
2022-07-25T07:04:06.592Z,27.90
2022-07-25T07:05:10.101Z,28.00
2022-07-25T07:06:15.295Z,28.00
2022-07-25T07:07:18.814Z,28.10
2022-07-25T07:08:22.357Z,28.20
2022-07-25T07:09:26.813Z,28.20
2022-07-25T07:10:31.227Z,28.30
2022-07-25T07:11:35.253Z,28.30
2022-07-25T07:12:37.699Z,28.20
2022-07-25T07:13:46.189Z,28.20
2022-07-25T07:14:49.256Z,28.00
2022-07-25T07:15:53.263Z,27.90
2022-07-25T07:16:55.648Z,27.90
2022-07-25T07:17:59.112Z,27.80
2022-07-25T07:19:02.764Z,27.30
2022-07-25T07:20:06.877Z,27.90
2022-07-25T07:21:10.839Z,27.90
2022-07-25T07:22:24.088Z,28.00
2022-07-25T07:23:29.158Z,28.00
2022-07-25T07:24:31.674Z,28.00
2022-07-25T07:25:35.956Z,28.00
2022-07-25T07:26:38.821Z,28.00
2022-07-25T07:27:45.584Z,28.10
2022-07-25T07:28:47.858Z,27.10
2022-07-25T07:29:51.294Z,28.20
2022-07-25T07:32:18.199Z,28.20
2022-07-25T07:33:22.120Z,28.30
2022-07-25T07:34:24.546Z,28.30
2022-07-25T07:35:34.855Z,28.30
2022-07-25T07:36:39.097Z,28.30
2022-07-25T07:37:44.802Z,28.40
2022-07-25T07:38:48.699Z,28.40
2022-07-25T07:39:51.165Z,28.50
2022-07-25T07:40:55.175Z,28.60
2022-07-25T07:41:58.072Z,28.70
2022-07-25T07:43:04.081Z,28.70
2022-07-25T07:44:07.918Z,28.80
2022-07-25T07:45:17.031Z,28.90
2022-07-25T07:46:20.498Z,29.00
2022-07-25T07:47:23.243Z,29.10
2022-07-25T07:48:26.995Z,29.20
2022-07-25T07:49:30.657Z,29.30
2022-07-25T07:50:41.125Z,29.40
2022-07-25T07:51:44.618Z,29.40
2022-07-25T07:52:50.231Z,29.40
2022-07-25T07:54:11.242Z,29.50
2022-07-25T07:55:36.199Z,29.40
2022-07-25T07:56:39.493Z,29.30
2022-07-25T07:57:41.876Z,29.30
2022-07-25T07:58:45.454Z,29.30
2022-07-25T07:59:50.517Z,29.20
2022-07-25T08:00:54.441Z,29.10
2022-07-25T08:01:57.187Z,29.00
2022-07-25T08:03:01.552Z,28.90
2022-07-25T08:04:04.622Z,28.90
2022-07-25T08:05:09.381Z,28.90
2022-07-25T08:06:12.797Z,28.90
2022-07-25T08:07:15.285Z,28.90
2022-07-25T08:08:20.366Z,28.80
2022-07-25T08:09:25.814Z,28.70
2022-07-25T08:10:30.620Z,28.60
2022-07-25T08:11:36.836Z,28.60
2022-07-25T08:12:42.491Z,28.50
2022-07-25T08:13:48.644Z,28.60
2022-07-25T08:14:51.258Z,28.60
2022-07-25T08:15:59.995Z,28.60
2022-07-25T08:17:03.383Z,28.40
2022-07-25T08:18:16.978Z,28.10
2022-07-25T08:19:21.443Z,27.90
2022-07-25T08:20:39.506Z,27.80
2022-07-25T08:21:43.115Z,27.70
2022-07-25T08:22:56.313Z,27.70
2022-07-25T08:24:01.534Z,27.60
2022-07-25T08:25:04.932Z,27.50
2022-07-25T08:26:08.661Z,27.40
2022-07-25T08:27:11.145Z,27.40
2022-07-25T08:28:15.387Z,27.40
2022-07-25T08:29:20.091Z,27.30
2022-07-25T08:30:24.947Z,27.30
2022-07-25T08:31:28.458Z,27.40
2022-07-25T08:32:31.014Z,27.40
2022-07-25T08:33:34.533Z,27.50
2022-07-25T08:34:37.051Z,27.50
2022-07-25T08:35:42.183Z,27.80
2022-07-25T08:36:45.817Z,27.70
2022-07-25T08:37:49.713Z,27.70
2022-07-25T08:38:53.229Z,27.70
2022-07-25T08:39:57.010Z,27.70
2022-07-25T08:41:01.370Z,27.70
2022-07-25T08:42:09.082Z,27.70
2022-07-25T08:43:15.929Z,27.70
2022-07-25T08:44:21.474Z,27.80
2022-07-25T08:45:28.804Z,27.90
2022-07-25T08:46:31.758Z,28.00
2022-07-25T08:47:36.667Z,28.00
2022-07-25T08:48:40.675Z,28.10
2022-07-25T08:49:43.959Z,29.30
2022-07-25T08:50:49.294Z,28.30
2022-07-25T08:51:52.082Z,28.30
2022-07-25T08:53:29.912Z,28.30
2022-07-25T08:54:20.856Z,28.20
2022-07-25T08:55:30.327Z,28.10
2022-07-25T08:56:33.697Z,28.00
2022-07-25T08:57:41.488Z,28.00
2022-07-25T08:58:45.652Z,27.90
2022-07-25T08:59:48.053Z,27.80
2022-07-25T09:00:51.754Z,27.80
2022-07-25T09:01:54.201Z,27.70
2022-07-25T09:03:00.657Z,27.70
2022-07-25T09:04:04.632Z,27.60
2022-07-25T09:05:10.167Z,27.60
2022-07-25T09:06:18.803Z,27.60
2022-07-25T09:07:31.939Z,27.60
2022-07-25T09:08:34.187Z,27.60
2022-07-25T09:09:40.013Z,27.50
2022-07-25T09:10:49.908Z,27.50
2022-07-25T09:11:52.204Z,27.40
2022-07-25T09:12:58.495Z,27.40
2022-07-25T09:14:03.804Z,27.50
2022-07-25T09:15:10.702Z,27.50
2022-07-25T09:16:14.775Z,27.60
2022-07-25T09:17:22.454Z,27.60
2022-07-25T09:18:28.248Z,27.70
2022-07-25T09:19:33.216Z,27.90
2022-07-25T09:20:44.533Z,28.00
2022-07-25T09:21:59.982Z,28.10
2022-07-25T09:23:03.747Z,28.30
2022-07-25T09:24:11.736Z,28.40
2022-07-25T09:25:23.569Z,28.50
2022-07-25T09:26:28.395Z,28.60
2022-07-25T09:27:35.569Z,28.60
2022-07-25T09:28:42.654Z,28.60
2022-07-25T09:29:46.732Z,28.50
2022-07-25T09:30:57.516Z,28.40
2022-07-25T09:32:01.937Z,28.30
2022-07-25T09:33:05.581Z,28.20
2022-07-25T09:34:10.115Z,28.20
2022-07-25T09:35:14.253Z,28.20
2022-07-25T09:36:16.695Z,28.10
2022-07-25T09:37:26.287Z,28.10
2022-07-25T09:38:30.045Z,28.10
2022-07-25T09:39:43.496Z,28.10
2022-07-25T09:40:57.462Z,28.00
2022-07-25T09:42:01.795Z,27.90
2022-07-25T09:43:05.773Z,27.80
2022-07-25T09:44:17.245Z,27.70
2022-07-25T09:45:20.758Z,27.70
2022-07-25T09:46:31.115Z,27.60
2022-07-25T09:47:37.253Z,27.60
2022-07-25T09:48:45.660Z,27.40
2022-07-25T09:49:48.549Z,27.50
2022-07-25T09:50:52.071Z,27.40
2022-07-25T09:51:55.383Z,27.40
2022-07-25T09:53:02.483Z,27.50
2022-07-25T09:54:05.679Z,27.50
2022-07-25T09:55:11.171Z,27.60
2022-07-25T09:56:13.639Z,27.60
2022-07-25T09:57:18.627Z,27.60
2022-07-25T09:58:22.114Z,27.70
2022-07-25T09:59:24.486Z,27.70
2022-07-25T10:00:29.794Z,27.80
2022-07-25T10:01:37.872Z,27.90
2022-07-25T10:02:50.470Z,27.90
2022-07-25T10:04:06.074Z,27.90
2022-07-25T10:05:14.712Z,27.90
2022-07-25T10:06:23.347Z,28.00
2022-07-25T10:07:31.414Z,28.00
2022-07-25T10:08:37.906Z,28.00
2022-07-25T10:09:43.509Z,28.10
2022-07-25T10:10:47.259Z,28.10
2022-07-25T10:12:06.116Z,28.20
2022-07-25T10:13:15.259Z,28.30
2022-07-25T10:14:18.489Z,28.10
2022-07-25T10:15:23.173Z,27.90
2022-07-25T10:16:28.554Z,27.90
2022-07-25T10:17:31.168Z,27.90
2022-07-25T10:18:36.515Z,27.80
2022-07-25T10:19:51.137Z,27.90
2022-07-25T10:21:25.016Z,27.90
2022-07-25T10:22:55.738Z,27.90
2022-07-25T10:24:06.920Z,28.00
2022-07-25T10:25:15.582Z,28.10
2022-07-25T10:26:19.721Z,28.10
2022-07-25T10:27:24.310Z,28.10
2022-07-25T10:28:42.740Z,28.10
2022-07-25T10:29:54.444Z,27.90
2022-07-25T10:30:58.787Z,28.10
2022-07-25T10:32:07.864Z,28.00
2022-07-25T10:33:13.748Z,28.10
2022-07-25T10:34:17.298Z,28.00
2022-07-25T10:35:19.848Z,27.90
2022-07-25T10:36:26.173Z,28.00
2022-07-25T10:37:29.618Z,28.00
2022-07-25T10:38:34.713Z,28.00
2022-07-25T10:39:40.356Z,27.30
2022-07-25T10:40:45.188Z,28.80
2022-07-25T10:41:53.805Z,28.20
2022-07-25T10:43:07.935Z,28.30
2022-07-25T10:44:15.913Z,28.50
2022-07-25T10:45:18.331Z,28.50
2022-07-25T10:46:23.534Z,28.60
2022-07-25T10:47:28.076Z,28.60
2022-07-25T10:48:33.479Z,28.70
2022-07-25T10:49:50.106Z,28.70
2022-07-25T10:51:05.253Z,28.80
2022-07-25T10:52:17.448Z,28.80
2022-07-25T10:53:33.662Z,28.80
2022-07-25T10:54:39.469Z,28.80
2022-07-25T10:55:42.994Z,27.30
2022-07-25T10:56:57.238Z,28.70
2022-07-25T10:58:17.102Z,28.70
2022-07-25T10:59:31.581Z,28.30
2022-07-25T11:00:34.111Z,28.70
2022-07-25T11:01:37.761Z,28.60
2022-07-25T11:02:41.425Z,28.50
2022-07-25T11:03:46.161Z,28.40
2022-07-25T11:05:00.719Z,28.40
2022-07-25T11:06:03.937Z,28.30
2022-07-25T11:07:11.686Z,28.30
2022-07-25T11:08:22.587Z,28.30
2022-07-25T11:09:30.013Z,28.30
2022-07-25T11:10:32.593Z,28.20
2022-07-25T11:11:38.577Z,28.30
2022-07-25T11:12:45.290Z,28.30
2022-07-25T11:13:50.797Z,28.20
2022-07-25T11:15:02.192Z,28.30
2022-07-25T11:16:05.866Z,28.40
2022-07-25T11:17:18.905Z,28.50
2022-07-25T11:18:33.294Z,28.50
2022-07-25T11:19:37.112Z,28.60
2022-07-25T11:20:39.706Z,28.70
2022-07-25T11:21:46.664Z,28.80
2022-07-25T11:22:56.400Z,28.80
2022-07-25T11:23:58.967Z,28.90
2022-07-25T11:25:03.809Z,28.90
2022-07-25T11:26:08.996Z,28.90
2022-07-25T11:27:14.865Z,28.90
2022-07-25T11:28:17.269Z,28.90
2022-07-25T11:29:22.251Z,28.80
2022-07-25T11:30:29.310Z,28.70
2022-07-25T11:31:33.562Z,28.60
2022-07-25T11:32:40.801Z,28.50
2022-07-25T11:33:48.559Z,28.30
2022-07-25T11:34:55.078Z,28.20
2022-07-25T11:35:59.668Z,28.20
2022-07-25T11:37:05.712Z,28.20
2022-07-25T11:38:14.987Z,28.20
2022-07-25T11:39:19.885Z,28.20
2022-07-25T11:40:24.218Z,28.30
2022-07-25T11:41:31.899Z,28.40
2022-07-25T11:42:42.522Z,28.40
2022-07-25T11:43:51.143Z,28.50
2022-07-25T11:44:54.597Z,28.40
2022-07-25T11:46:02.335Z,28.40
2022-07-25T11:47:07.035Z,28.30
2022-07-25T11:48:12.879Z,28.40
2022-07-25T11:49:15.502Z,28.40
2022-07-25T11:50:19.228Z,28.40
2022-07-25T11:51:21.797Z,28.50
2022-07-25T11:52:30.084Z,28.40
2022-07-25T11:53:40.813Z,28.50
2022-07-25T11:54:52.807Z,28.50
2022-07-25T11:55:56.481Z,28.60
2022-07-25T11:57:00.375Z,28.90
2022-07-25T11:58:10.169Z,28.70
2022-07-25T11:59:14.097Z,28.30
2022-07-25T12:00:20.928Z,28.90
2022-07-25T12:01:26.755Z,28.90
2022-07-25T12:02:35.536Z,28.90
2022-07-25T12:03:41.285Z,28.90
2022-07-25T12:04:55.890Z,28.80
2022-07-25T12:06:08.423Z,28.80
2022-07-25T12:07:12.112Z,28.70
2022-07-25T12:08:18.174Z,28.70
2022-07-25T12:09:22.796Z,28.80
2022-07-25T12:10:35.112Z,28.80
2022-07-25T12:11:37.992Z,28.90
2022-07-25T12:12:46.830Z,28.90
2022-07-25T12:13:50.794Z,29.00
2022-07-25T12:14:54.506Z,29.00
2022-07-25T12:15:58.907Z,29.10
2022-07-25T12:17:04.013Z,29.10
2022-07-25T12:18:09.733Z,29.20
2022-07-25T12:19:22.252Z,29.20
2022-07-25T12:20:26.727Z,29.30
2022-07-25T12:21:30.762Z,29.20
2022-07-25T12:22:33.383Z,29.20
2022-07-25T12:23:39.086Z,29.30
2022-07-25T12:24:42.715Z,29.70
2022-07-25T12:25:46.721Z,29.40
2022-07-25T12:26:50.461Z,29.50
2022-07-25T12:27:53.093Z,29.50
2022-07-25T12:28:56.931Z,29.40
2022-07-25T12:30:00.698Z,29.50
2022-07-25T12:31:04.723Z,29.60
2022-07-25T12:32:09.876Z,29.60
2022-07-25T12:33:13.156Z,29.70
2022-07-25T12:34:17.035Z,29.80
2022-07-25T12:35:21.025Z,29.90
2022-07-25T12:36:24.844Z,29.90
2022-07-25T12:37:28.306Z,30.00
2022-07-25T12:38:33.317Z,30.00
2022-07-25T12:39:35.953Z,30.00
2022-07-25T12:40:40.428Z,29.90
2022-07-25T12:41:44.304Z,30.00
2022-07-25T12:42:48.147Z,30.00
2022-07-25T12:43:52.008Z,29.90
2022-07-25T12:44:55.294Z,29.90
2022-07-25T12:45:59.067Z,29.80
2022-07-25T12:47:03.487Z,29.70
2022-07-25T12:48:09.149Z,29.70
2022-07-25T12:49:12.779Z,29.70
2022-07-25T12:50:18.142Z,29.70
2022-07-25T12:51:21.883Z,29.60
2022-07-25T12:52:24.449Z,29.60
2022-07-25T12:53:28.170Z,29.50
2022-07-25T12:54:30.766Z,29.40
2022-07-25T12:55:34.720Z,29.20
2022-07-25T12:56:37.360Z,29.10
2022-07-25T12:57:41.931Z,29.00
2022-07-25T12:58:44.787Z,28.90
2022-07-25T12:59:48.760Z,28.90
2022-07-25T13:00:55.848Z,28.80
2022-07-25T13:02:01.412Z,29.00
2022-07-25T13:03:05.472Z,29.10
2022-07-25T13:04:10.627Z,29.10
2022-07-25T13:05:13.710Z,29.10
2022-07-25T13:06:20.937Z,29.10
2022-07-25T13:07:23.919Z,29.20
2022-07-25T13:08:28.917Z,29.20
2022-07-25T13:09:33.589Z,29.20
2022-07-25T13:10:37.576Z,29.20
2022-07-25T13:11:40.554Z,29.20
2022-07-25T13:12:44.344Z,29.30
2022-07-25T13:13:48.000Z,29.20
2022-07-25T13:14:51.887Z,29.20
2022-07-25T13:15:54.514Z,29.10
2022-07-25T13:16:58.449Z,29.20
2022-07-25T13:18:03.994Z,29.20
2022-07-25T13:19:07.018Z,29.30
2022-07-25T13:20:15.881Z,29.40
2022-07-25T13:21:20.230Z,29.50
2022-07-25T13:22:23.941Z,29.50
2022-07-25T13:23:28.294Z,29.70
2022-07-25T13:24:31.646Z,29.80
2022-07-25T13:25:36.285Z,29.90
2022-07-25T13:26:39.607Z,29.90
2022-07-25T13:27:43.611Z,29.80
2022-07-25T13:28:47.293Z,29.70
2022-07-25T13:29:54.868Z,29.70
2022-07-25T13:30:58.938Z,29.80
2022-07-25T13:32:02.445Z,29.80
2022-07-25T13:33:06.094Z,29.80
2022-07-25T13:34:09.267Z,29.80
2022-07-25T13:35:19.096Z,29.80
2022-07-25T13:36:25.875Z,29.90
2022-07-25T13:37:29.312Z,29.90
2022-07-25T13:38:34.810Z,29.90
2022-07-25T13:39:39.858Z,29.90
2022-07-25T13:40:43.526Z,29.90
2022-07-25T13:41:46.145Z,30.80
2022-07-25T13:42:49.973Z,30.00
2022-07-25T13:43:54.220Z,30.00
2022-07-25T13:45:00.930Z,30.00
2022-07-25T13:46:04.042Z,30.00
2022-07-25T13:47:07.969Z,29.90
2022-07-25T13:48:28.951Z,30.00
2022-07-25T13:49:34.266Z,29.90
2022-07-25T13:50:39.351Z,30.00
2022-07-25T13:51:42.195Z,30.00
2022-07-25T13:52:46.433Z,30.10
2022-07-25T13:53:51.252Z,30.10
2022-07-25T13:54:55.214Z,30.10
2022-07-25T13:56:00.271Z,30.20
2022-07-25T13:57:03.587Z,30.30
2022-07-25T13:58:07.809Z,30.30
2022-07-25T13:59:12.454Z,30.30